createdAt,value
2019-05-12T00:02:18.715Z,22.18
2019-05-12T00:04:50.170Z,22.21
2019-05-12T00:07:21.729Z,22.30
2019-05-12T00:09:53.435Z,22.24
2019-05-12T00:12:24.845Z,22.23
2019-05-12T00:14:58.918Z,22.17
2019-05-12T00:17:29.497Z,22.25
2019-05-12T00:20:01.155Z,22.30
2019-05-12T00:22:34.047Z,22.42
2019-05-12T00:25:08.825Z,22.55
2019-05-12T00:27:40.252Z,22.66
2019-05-12T00:30:13.324Z,22.76
2019-05-12T00:32:44.677Z,22.89
2019-05-12T00:35:18.161Z,22.99
2019-05-12T00:37:49.418Z,23.07
2019-05-12T00:40:20.867Z,23.12
2019-05-12T00:42:52.432Z,23.08
2019-05-12T00:45:23.709Z,23.05
2019-05-12T00:47:54.933Z,22.99
2019-05-12T00:50:26.073Z,23.06
2019-05-12T00:52:58.242Z,23.02
2019-05-12T00:55:30.118Z,23.04
2019-05-12T00:58:01.364Z,23.07
2019-05-12T01:00:32.510Z,23.11
2019-05-12T01:03:04.168Z,23.11
2019-05-12T01:05:38.015Z,23.10
2019-05-12T01:08:09.498Z,23.17
2019-05-12T01:10:41.192Z,23.24
2019-05-12T01:13:12.640Z,23.27
2019-05-12T01:15:43.996Z,23.28
2019-05-12T01:18:17.975Z,23.24
2019-05-12T01:20:48.652Z,23.17
2019-05-12T01:23:23.340Z,23.19
2019-05-12T01:25:53.408Z,23.17
2019-05-12T01:28:24.951Z,23.08
2019-05-12T01:30:58.346Z,23.08
2019-05-12T01:33:29.501Z,23.20
2019-05-12T01:36:01.060Z,23.19
2019-05-12T01:38:32.515Z,23.21
2019-05-12T01:41:04.278Z,23.24
2019-05-12T01:43:38.096Z,23.30
2019-05-12T01:46:08.724Z,23.24
2019-05-12T01:48:39.875Z,23.24
2019-05-12T01:51:11.555Z,23.19
2019-05-12T01:53:43.090Z,23.11
2019-05-12T01:56:14.648Z,23.28
2019-05-12T01:58:48.422Z,23.27
2019-05-12T02:01:19.715Z,23.00
2019-05-12T02:03:52.416Z,22.92
2019-05-12T02:06:24.257Z,22.67
2019-05-12T02:08:58.173Z,22.46
2019-05-12T02:11:32.495Z,22.39
2019-05-12T02:14:04.258Z,22.27
2019-05-12T02:16:35.703Z,22.18
2019-05-12T02:19:09.046Z,22.09
2019-05-12T02:21:40.968Z,21.97
2019-05-12T02:24:23.344Z,21.88
2019-05-12T02:26:44.891Z,21.80
2019-05-12T02:29:18.315Z,21.76
2019-05-12T02:31:50.291Z,21.82
2019-05-12T02:34:25.102Z,21.78
2019-05-12T02:36:55.457Z,21.71
2019-05-12T02:39:26.802Z,21.72
2019-05-12T02:41:58.428Z,21.73
2019-05-12T02:44:30.078Z,21.74
2019-05-12T02:47:04.907Z,21.77
2019-05-12T02:49:34.987Z,21.80
2019-05-12T02:52:06.603Z,21.86
2019-05-12T02:54:51.930Z,21.92
2019-05-12T02:57:14.292Z,21.99
2019-05-12T02:59:45.668Z,22.02
2019-05-12T03:02:17.535Z,22.05
2019-05-12T03:04:48.684Z,22.11
2019-05-12T03:07:19.831Z,22.15
2019-05-12T03:09:54.836Z,22.24
2019-05-12T03:12:25.688Z,22.33
2019-05-12T03:14:56.960Z,22.42
2019-05-12T03:17:28.425Z,22.56
2019-05-12T03:19:59.769Z,22.65
2019-05-12T03:22:31.134Z,22.71
2019-05-12T03:25:11.820Z,22.75
2019-05-12T03:27:35.404Z,22.75
2019-05-12T03:30:11.713Z,22.75
2019-05-12T03:32:39.992Z,22.74
2019-05-12T03:35:17.000Z,22.88
2019-05-12T03:37:45.300Z,22.93
2019-05-12T03:40:16.827Z,22.96
2019-05-12T03:42:48.184Z,23.05
2019-05-12T03:45:19.638Z,23.16
2019-05-12T03:47:50.992Z,23.35
2019-05-12T03:50:24.342Z,23.46
2019-05-12T03:52:56.624Z,23.58
2019-05-12T03:55:35.880Z,23.63
2019-05-12T03:58:00.911Z,23.67
2019-05-12T04:00:35.931Z,23.74
2019-05-12T04:03:06.332Z,23.90
2019-05-12T04:05:37.639Z,24.04
2019-05-12T04:08:10.000Z,24.17
2019-05-12T04:10:41.561Z,24.23
2019-05-12T04:13:15.109Z,24.25
2019-05-12T04:15:46.201Z,24.25
2019-05-12T04:18:17.401Z,24.28
2019-05-12T04:20:49.224Z,24.36
2019-05-12T04:23:20.675Z,24.45
2019-05-12T04:25:58.388Z,24.46
2019-05-12T04:28:24.808Z,24.51
2019-05-12T04:30:57.089Z,24.51
2019-05-12T04:33:28.542Z,24.77
2019-05-12T04:35:59.901Z,24.77
2019-05-12T04:38:31.149Z,24.95
2019-05-12T04:41:05.721Z,24.97
2019-05-12T04:43:35.793Z,25.04
2019-05-12T04:46:07.558Z,25.19
2019-05-12T04:48:38.802Z,25.31
2019-05-12T04:51:10.563Z,25.45
2019-05-12T04:53:44.891Z,25.55
2019-05-12T04:56:20.131Z,25.65
2019-05-12T04:58:47.895Z,25.66
2019-05-12T05:01:19.453Z,25.73
2019-05-12T05:03:50.604Z,25.84
2019-05-12T05:06:21.748Z,25.89
2019-05-12T05:08:54.430Z,25.68
2019-05-12T05:11:25.881Z,25.52
2019-05-12T05:13:57.566Z,25.43
2019-05-12T05:16:28.903Z,25.33
2019-05-12T05:19:00.147Z,25.26
2019-05-12T05:21:31.601Z,25.44
2019-05-12T05:24:03.888Z,25.56
2019-05-12T05:26:37.469Z,25.68
2019-05-12T05:29:08.110Z,25.73
2019-05-12T05:31:39.772Z,25.50
2019-05-12T05:34:11.430Z,25.41
2019-05-12T05:36:43.447Z,25.71
2019-05-12T05:39:14.745Z,26.08
2019-05-12T05:41:50.900Z,26.13
2019-05-12T05:44:19.206Z,26.26
2019-05-12T05:46:54.544Z,26.14
2019-05-12T05:49:24.972Z,26.12
2019-05-12T05:51:57.600Z,26.27
2019-05-12T05:54:31.372Z,26.31
2019-05-12T05:57:03.051Z,26.42
2019-05-12T05:59:36.856Z,26.41
2019-05-12T06:02:07.677Z,26.50
2019-05-12T06:04:43.840Z,26.33
2019-05-12T06:07:14.239Z,26.55
2019-05-12T06:09:45.106Z,26.70
2019-05-12T06:12:16.459Z,26.79
2019-05-12T06:14:54.327Z,26.78
2019-05-12T06:17:20.906Z,26.89
2019-05-12T06:19:53.872Z,26.63
2019-05-12T06:22:25.050Z,26.85
2019-05-12T06:24:58.878Z,26.87
2019-05-12T06:27:32.701Z,26.78
2019-05-12T06:30:06.201Z,26.90
2019-05-12T06:32:35.881Z,27.15
2019-05-12T06:35:07.341Z,27.16
2019-05-12T06:37:44.208Z,27.52
2019-05-12T06:40:15.365Z,27.43
2019-05-12T06:42:48.417Z,27.46
2019-05-12T06:45:20.531Z,27.57
2019-05-12T06:47:54.110Z,27.59
2019-05-12T06:50:28.592Z,27.39
2019-05-12T06:52:58.072Z,27.83
2019-05-12T06:55:34.380Z,28.30
2019-05-12T06:58:04.775Z,28.18
2019-05-12T07:00:35.712Z,28.18
2019-05-12T07:03:07.472Z,28.21
2019-05-12T07:05:42.507Z,28.51
2019-05-12T07:08:12.022Z,28.50
2019-05-12T07:10:46.852Z,28.44
2019-05-12T07:13:23.223Z,28.77
2019-05-12T07:15:49.654Z,28.90
2019-05-12T07:18:31.619Z,28.81
2019-05-12T07:20:55.431Z,28.77
2019-05-12T07:23:30.229Z,28.56
2019-05-12T07:26:04.772Z,28.22
2019-05-12T07:28:36.217Z,28.58
2019-05-12T07:31:05.658Z,28.71
2019-05-12T07:33:41.539Z,28.71
2019-05-12T07:36:10.776Z,28.80
2019-05-12T07:38:43.388Z,28.64
2019-05-12T07:41:15.469Z,28.82
2019-05-12T07:43:50.526Z,28.70
2019-05-12T07:46:19.810Z,28.87
2019-05-12T07:48:51.163Z,29.06
2019-05-12T07:51:24.143Z,28.90
2019-05-12T07:53:58.966Z,28.91
2019-05-12T07:56:32.585Z,28.92
2019-05-12T07:59:04.193Z,29.21
2019-05-12T08:01:35.878Z,29.50
2019-05-12T08:04:07.255Z,29.62
2019-05-12T08:06:41.693Z,29.87
2019-05-12T08:09:13.559Z,30.03
2019-05-12T08:11:45.001Z,30.08
2019-05-12T08:14:26.811Z,30.10
2019-05-12T08:16:50.067Z,30.09
2019-05-12T08:19:26.560Z,29.98
2019-05-12T08:21:54.713Z,29.61
2019-05-12T08:24:26.310Z,29.82
2019-05-12T08:27:03.124Z,30.01
2019-05-12T08:29:30.620Z,29.87
2019-05-12T08:32:03.806Z,30.27
2019-05-12T08:34:35.158Z,30.32
2019-05-12T08:37:07.736Z,30.33
2019-05-12T08:39:39.197Z,30.49
2019-05-12T08:42:10.853Z,30.20
2019-05-12T08:44:43.926Z,30.47
2019-05-12T08:47:15.364Z,30.81
2019-05-12T08:49:55.060Z,30.85
2019-05-12T08:52:19.439Z,30.96
2019-05-12T08:54:51.460Z,30.91
2019-05-12T08:57:24.808Z,30.63
2019-05-12T09:00:02.750Z,30.89
2019-05-12T09:02:29.144Z,30.68
2019-05-12T09:05:00.800Z,30.60
2019-05-12T09:07:35.977Z,30.70
2019-05-12T09:10:08.018Z,30.19
2019-05-12T09:12:39.519Z,30.33
2019-05-12T09:15:13.410Z,30.74
2019-05-12T09:17:52.539Z,31.03
2019-05-12T09:20:18.024Z,31.05
2019-05-12T09:22:55.030Z,30.96
2019-05-12T09:25:23.885Z,30.71
2019-05-12T09:27:55.244Z,30.69
2019-05-12T09:30:28.923Z,30.93
2019-05-12T09:33:00.595Z,31.34
2019-05-12T09:35:34.784Z,31.78
2019-05-12T09:38:06.142Z,32.06
2019-05-12T09:40:37.518Z,32.38
2019-05-12T09:43:10.699Z,32.67
2019-05-12T09:45:52.099Z,32.60
2019-05-12T09:48:15.397Z,32.01
2019-05-12T09:50:51.555Z,31.97
2019-05-12T09:53:19.830Z,31.98
2019-05-12T09:55:53.759Z,31.98
2019-05-12T09:58:27.686Z,32.09
2019-05-12T10:00:57.327Z,32.16
2019-05-12T10:03:30.876Z,32.52
2019-05-12T10:06:03.667Z,32.37
2019-05-12T10:08:35.544Z,32.07
2019-05-12T10:11:10.250Z,32.02
2019-05-12T10:13:44.897Z,31.91
2019-05-12T10:16:15.979Z,31.95
2019-05-12T10:18:51.300Z,32.21
2019-05-12T10:21:20.111Z,32.78
2019-05-12T10:23:56.407Z,32.95
2019-05-12T10:26:23.936Z,33.16
2019-05-12T10:28:58.375Z,33.57
2019-05-12T10:31:29.524Z,33.67
2019-05-12T10:34:18.992Z,34.18
2019-05-12T10:36:53.505Z,34.33
2019-05-12T10:39:24.583Z,35.12
2019-05-12T10:41:56.741Z,35.53
2019-05-12T10:44:29.911Z,36.01
2019-05-12T10:47:04.401Z,36.05
2019-05-12T10:49:36.005Z,35.92
2019-05-12T10:52:07.663Z,35.75
2019-05-12T10:54:38.924Z,35.80
2019-05-12T10:57:10.063Z,35.63
2019-05-12T10:59:45.226Z,35.41
2019-05-12T11:02:14.027Z,35.83
2019-05-12T11:04:45.449Z,35.86
2019-05-12T11:07:16.910Z,35.23
2019-05-12T11:09:49.998Z,34.79
2019-05-12T11:12:25.292Z,33.92
2019-05-12T11:15:01.070Z,33.85
2019-05-12T11:17:33.463Z,34.86
2019-05-12T11:20:04.276Z,35.66
2019-05-12T11:22:35.467Z,36.52
2019-05-12T11:25:07.122Z,36.91
2019-05-12T11:27:38.474Z,37.38
2019-05-12T11:30:10.256Z,37.93
2019-05-12T11:32:41.693Z,38.03
2019-05-12T11:35:14.331Z,38.76
2019-05-12T11:37:45.521Z,39.31
2019-05-12T11:40:16.704Z,39.92
2019-05-12T11:42:55.671Z,39.92
2019-05-12T11:45:21.215Z,38.89
2019-05-12T11:47:59.172Z,38.75
2019-05-12T11:50:25.676Z,38.77
2019-05-12T11:52:57.002Z,38.11
2019-05-12T11:55:31.539Z,38.20
2019-05-12T11:58:06.796Z,38.68
2019-05-12T12:00:35.657Z,39.08
2019-05-12T12:03:12.544Z,39.55
2019-05-12T12:05:39.787Z,40.25
2019-05-12T12:08:10.836Z,40.69
2019-05-12T12:10:42.171Z,40.67
2019-05-12T12:13:14.113Z,40.95
2019-05-12T12:15:45.298Z,40.61
2019-05-12T12:18:16.340Z,39.54
2019-05-12T12:20:48.209Z,38.67
2019-05-12T12:23:19.636Z,38.32
2019-05-12T12:25:53.268Z,38.20
2019-05-12T12:28:24.287Z,37.99
2019-05-12T12:31:00.370Z,37.76
2019-05-12T12:33:30.979Z,37.33
2019-05-12T12:36:03.939Z,36.91
2019-05-12T12:38:34.634Z,36.94
2019-05-12T12:41:05.979Z,36.74
2019-05-12T12:43:37.364Z,36.67
2019-05-12T12:46:10.750Z,36.31
2019-05-12T12:48:43.982Z,36.42
2019-05-12T12:51:17.445Z,36.13
2019-05-12T12:53:48.066Z,35.40
2019-05-12T12:56:27.678Z,33.53
2019-05-12T12:58:52.101Z,32.79
2019-05-12T13:01:28.446Z,32.14
2019-05-12T13:03:59.436Z,31.38
2019-05-12T13:06:29.641Z,30.65
2019-05-12T13:09:00.997Z,30.41
2019-05-12T13:11:34.931Z,30.04
2019-05-12T13:14:05.441Z,29.81
2019-05-12T13:16:36.684Z,29.40
2019-05-12T13:19:12.330Z,29.12
2019-05-12T13:21:41.125Z,29.16
2019-05-12T13:24:12.177Z,29.22
2019-05-12T13:26:43.695Z,29.25
2019-05-12T13:29:14.987Z,29.31
2019-05-12T13:31:48.300Z,29.28
2019-05-12T13:34:19.153Z,29.41
2019-05-12T13:36:50.586Z,29.33
2019-05-12T13:39:24.248Z,28.86
2019-05-12T13:41:58.543Z,28.71
2019-05-12T13:44:30.437Z,28.67
2019-05-12T13:47:00.710Z,28.71
2019-05-12T13:49:38.419Z,28.81
2019-05-12T13:52:06.057Z,28.85
2019-05-12T13:54:37.745Z,28.94
2019-05-12T13:57:11.792Z,29.02
2019-05-12T13:59:43.550Z,29.11
2019-05-12T14:02:22.077Z,29.25
2019-05-12T14:04:48.864Z,29.35
2019-05-12T14:07:20.389Z,29.47
2019-05-12T14:09:51.872Z,29.61
2019-05-12T14:12:23.328Z,29.85
2019-05-12T14:14:54.798Z,30.13
2019-05-12T14:17:26.134Z,30.39
2019-05-12T14:19:58.002Z,30.60
2019-05-12T14:22:29.455Z,30.71
2019-05-12T14:25:02.243Z,30.51
2019-05-12T14:27:33.492Z,30.73
2019-05-12T14:30:11.474Z,30.78
2019-05-12T14:32:38.998Z,30.80
2019-05-12T14:35:10.117Z,30.80
2019-05-12T14:37:45.769Z,30.90
2019-05-12T14:40:15.163Z,31.03
2019-05-12T14:42:46.228Z,30.95
2019-05-12T14:45:19.465Z,31.05
2019-05-12T14:47:50.256Z,31.22
2019-05-12T14:50:21.502Z,31.52
2019-05-12T14:52:55.914Z,31.84
2019-05-12T14:55:26.032Z,32.13
2019-05-12T14:57:57.299Z,31.88
2019-05-12T15:00:29.176Z,31.64
2019-05-12T15:03:05.478Z,31.51
2019-05-12T15:05:33.811Z,31.42
2019-05-12T15:08:05.377Z,31.16
2019-05-12T15:10:36.820Z,31.08
2019-05-12T15:13:08.171Z,30.98
2019-05-12T15:15:39.320Z,30.81
2019-05-12T15:18:13.181Z,30.65
2019-05-12T15:20:49.975Z,30.50
2019-05-12T15:23:16.863Z,30.46
2019-05-12T15:25:50.911Z,30.42
2019-05-12T15:28:23.462Z,30.35
2019-05-12T15:30:54.328Z,30.25
2019-05-12T15:33:26.468Z,30.08
2019-05-12T15:35:57.820Z,29.97
2019-05-12T15:38:29.274Z,29.95
2019-05-12T15:41:00.626Z,29.79
2019-05-12T15:43:35.790Z,29.49
2019-05-12T15:46:05.176Z,29.17
2019-05-12T15:48:36.627Z,28.76
2019-05-12T15:51:09.108Z,28.64
2019-05-12T15:53:44.600Z,28.54
2019-05-12T15:56:23.104Z,28.56
2019-05-12T15:58:55.830Z,28.55
2019-05-12T16:01:26.364Z,28.58
2019-05-12T16:03:59.232Z,28.46
2019-05-12T16:06:31.601Z,28.32
2019-05-12T16:09:04.843Z,28.24
2019-05-12T16:11:35.889Z,28.25
2019-05-12T16:14:06.832Z,28.33
2019-05-12T16:16:42.432Z,28.42
2019-05-12T16:19:11.060Z,28.42
2019-05-12T16:21:45.304Z,28.45
2019-05-12T16:24:15.777Z,28.48
2019-05-12T16:26:51.721Z,28.49
2019-05-12T16:29:19.860Z,28.47
2019-05-12T16:31:53.782Z,28.42
2019-05-12T16:34:25.040Z,28.36
2019-05-12T16:36:56.277Z,28.25
2019-05-12T16:39:30.502Z,28.15
2019-05-12T16:42:08.336Z,28.05
2019-05-12T16:44:34.858Z,27.95
2019-05-12T16:47:06.183Z,27.84
2019-05-12T16:49:37.641Z,27.78
2019-05-12T16:52:10.147Z,27.70
2019-05-12T16:54:43.885Z,27.67
2019-05-12T16:57:18.120Z,27.58
2019-05-12T16:59:55.556Z,27.60
2019-05-12T17:02:23.358Z,27.61
2019-05-12T17:04:54.028Z,27.52
2019-05-12T17:07:27.144Z,27.52
2019-05-12T17:10:03.047Z,27.52
2019-05-12T17:12:36.479Z,27.47
2019-05-12T17:15:05.088Z,27.41
2019-05-12T17:17:36.232Z,27.30
2019-05-12T17:20:07.927Z,27.20
2019-05-12T17:22:45.786Z,27.11
2019-05-12T17:25:15.299Z,27.00
2019-05-12T17:27:46.906Z,26.92
2019-05-12T17:30:18.375Z,26.87
2019-05-12T17:32:58.084Z,26.69
2019-05-12T17:35:27.084Z,26.52
2019-05-12T17:37:56.067Z,26.31
2019-05-12T17:40:27.864Z,26.35
2019-05-12T17:43:06.853Z,26.36
2019-05-12T17:45:32.172Z,26.33
2019-05-12T17:48:07.422Z,26.31
2019-05-12T17:50:40.385Z,26.35
2019-05-12T17:53:09.402Z,26.35
2019-05-12T17:55:42.725Z,26.26
2019-05-12T17:58:13.856Z,26.32
2019-05-12T18:00:47.692Z,26.29
2019-05-12T18:03:22.161Z,26.22
2019-05-12T18:05:52.971Z,26.23
2019-05-12T18:08:32.325Z,26.26
2019-05-12T18:10:57.082Z,26.29
2019-05-12T18:13:28.606Z,26.27
2019-05-12T18:16:02.912Z,26.23
2019-05-12T18:18:37.957Z,26.17
2019-05-12T18:21:06.109Z,26.08
2019-05-12T18:23:40.263Z,25.91
2019-05-12T18:26:15.918Z,25.89
2019-05-12T18:28:44.608Z,25.83
2019-05-12T18:31:16.181Z,25.92
2019-05-12T18:33:52.089Z,26.00
2019-05-12T18:36:23.665Z,26.01
2019-05-12T18:39:04.443Z,25.99
2019-05-12T18:41:28.521Z,25.99
2019-05-12T18:44:00.088Z,25.93
2019-05-12T18:46:38.668Z,25.95
2019-05-12T18:49:11.983Z,25.95
2019-05-12T18:51:37.705Z,25.90
2019-05-12T18:54:10.427Z,25.86
2019-05-12T18:56:44.037Z,25.91
2019-05-12T18:59:16.591Z,25.90
2019-05-12T19:01:48.329Z,25.91
2019-05-12T19:04:19.721Z,25.90
2019-05-12T19:06:51.157Z,25.89
2019-05-12T19:09:23.895Z,25.87
2019-05-12T19:11:55.392Z,25.89
2019-05-12T19:14:34.936Z,25.88
2019-05-12T19:16:59.811Z,25.87
2019-05-12T19:19:31.469Z,25.76
2019-05-12T19:22:09.073Z,25.70
2019-05-12T19:24:36.475Z,25.62
2019-05-12T19:27:10.216Z,25.58
2019-05-12T19:29:48.190Z,25.52
2019-05-12T19:32:14.372Z,25.41
2019-05-12T19:34:46.278Z,25.36
2019-05-12T19:37:19.421Z,25.30
2019-05-12T19:39:50.995Z,25.24
2019-05-12T19:42:24.415Z,25.21
2019-05-12T19:44:59.662Z,25.30
2019-05-12T19:47:34.500Z,25.32
2019-05-12T19:50:08.860Z,25.37
2019-05-12T19:52:34.305Z,25.43
2019-05-12T19:55:08.527Z,25.48
2019-05-12T19:57:39.985Z,25.53
2019-05-12T20:00:13.649Z,25.58
2019-05-12T20:02:44.190Z,25.61
2019-05-12T20:05:17.641Z,25.70
2019-05-12T20:07:48.163Z,25.74
2019-05-12T20:10:19.719Z,25.78
2019-05-12T20:12:54.912Z,25.82
2019-05-12T20:15:24.255Z,25.88
2019-05-12T20:17:55.410Z,25.87
2019-05-12T20:20:36.645Z,25.90
2019-05-12T20:22:59.753Z,25.86
2019-05-12T20:25:31.107Z,25.93
2019-05-12T20:28:05.578Z,25.94
2019-05-12T20:30:35.551Z,26.03
2019-05-12T20:33:08.176Z,26.10
2019-05-12T20:35:47.324Z,26.00
2019-05-12T20:38:14.763Z,26.06
2019-05-12T20:40:45.457Z,26.05
2019-05-12T20:43:18.063Z,26.07
2019-05-12T20:45:49.700Z,26.00
2019-05-12T20:48:26.388Z,26.03
2019-05-12T20:50:54.761Z,26.04
2019-05-12T20:53:31.781Z,26.12
2019-05-12T20:56:00.209Z,26.09
2019-05-12T20:58:39.536Z,26.11
2019-05-12T21:01:08.463Z,26.14
2019-05-12T21:03:46.342Z,26.17
2019-05-12T21:06:14.564Z,26.20
2019-05-12T21:08:53.619Z,26.20
2019-05-12T21:11:19.796Z,26.16
2019-05-12T21:13:51.453Z,26.13
2019-05-12T21:16:31.244Z,26.11
2019-05-12T21:19:05.625Z,26.08
2019-05-12T21:21:34.247Z,26.16
2019-05-12T21:24:04.840Z,26.19
2019-05-12T21:26:37.872Z,26.19
2019-05-12T21:29:07.874Z,26.24
2019-05-12T21:31:39.519Z,26.22
2019-05-12T21:34:15.061Z,26.21
2019-05-12T21:36:44.595Z,26.25
2019-05-12T21:39:16.469Z,26.27
2019-05-12T21:41:52.101Z,26.35
2019-05-12T21:44:21.090Z,26.40
2019-05-12T21:47:03.776Z,26.45
2019-05-12T21:49:25.539Z,26.41
2019-05-12T21:52:02.974Z,26.31
2019-05-12T21:54:37.746Z,26.30
2019-05-12T21:57:03.796Z,26.23
2019-05-12T21:59:39.421Z,26.19
2019-05-12T22:02:08.138Z,26.14
2019-05-12T22:04:41.504Z,26.00
2019-05-12T22:07:14.584Z,25.94
2019-05-12T22:09:47.178Z,25.91
2019-05-12T22:12:23.505Z,25.89
2019-05-12T22:14:54.314Z,25.89
2019-05-12T22:17:27.722Z,25.97
2019-05-12T22:19:59.320Z,25.90
2019-05-12T22:22:33.214Z,25.92
2019-05-12T22:25:09.801Z,25.91
2019-05-12T22:27:39.547Z,25.79
2019-05-12T22:30:13.349Z,25.71
2019-05-12T22:32:44.228Z,25.73
2019-05-12T22:35:21.940Z,25.73
2019-05-12T22:37:49.072Z,25.75
2019-05-12T22:40:20.526Z,25.73
2019-05-12T22:42:57.033Z,25.72
2019-05-12T22:45:25.381Z,25.66
2019-05-12T22:47:59.080Z,25.70
2019-05-12T22:50:33.215Z,25.64
2019-05-12T22:53:04.436Z,25.65
2019-05-12T22:55:36.367Z,25.62
2019-05-12T22:58:10.842Z,25.61
2019-05-12T23:00:40.670Z,25.65
2019-05-12T23:03:14.974Z,25.62
2019-05-12T23:05:50.609Z,25.61
2019-05-12T23:08:19.743Z,25.66
2019-05-12T23:10:53.267Z,25.64
2019-05-12T23:13:24.008Z,25.64
2019-05-12T23:15:55.743Z,25.63
2019-05-12T23:18:30.700Z,25.61
2019-05-12T23:21:04.139Z,25.52
2019-05-12T23:23:34.083Z,25.52
2019-05-12T23:26:05.662Z,25.56
2019-05-12T23:28:40.499Z,25.52
2019-05-12T23:31:10.311Z,25.56
2019-05-12T23:33:44.129Z,25.63
2019-05-12T23:36:19.570Z,25.63
2019-05-12T23:38:51.996Z,25.65
2019-05-12T23:41:23.794Z,25.66
2019-05-12T23:43:56.701Z,25.70
2019-05-12T23:46:27.848Z,25.70
2019-05-12T23:48:59.506Z,25.76
2019-05-12T23:51:31.062Z,25.81
2019-05-12T23:54:03.782Z,25.81
2019-05-12T23:56:35.309Z,25.91
2019-05-12T23:59:06.659Z,25.97
